createdAt,value
2022-12-17T00:02:33.636Z,90.43
2022-12-17T00:05:19.739Z,94.97
2022-12-17T00:08:05.756Z,89.20
2022-12-17T00:10:51.733Z,89.80
2022-12-17T00:13:39.213Z,92.37
2022-12-17T00:16:25.883Z,93.13
2022-12-17T00:19:13.393Z,91.97
2022-12-17T00:21:59.484Z,91.83
2022-12-17T00:24:45.733Z,99.10
2022-12-17T00:27:31.992Z,91.00
2022-12-17T00:30:18.062Z,80.10
2022-12-17T00:33:04.011Z,88.03
2022-12-17T00:35:51.513Z,96.03
2022-12-17T00:38:37.904Z,93.40
2022-12-17T00:41:24.083Z,90.97
2022-12-17T00:44:11.352Z,84.63
2022-12-17T00:46:57.355Z,86.97
2022-12-17T00:49:44.603Z,86.23
2022-12-17T00:52:31.894Z,81.93
2022-12-17T00:55:17.702Z,78.63
2022-12-17T00:58:04.076Z,84.67
2022-12-17T01:00:50.130Z,86.27
2022-12-17T01:03:36.593Z,80.37
2022-12-17T01:06:25.912Z,88.63
2022-12-17T01:09:12.991Z,80.30
2022-12-17T01:11:59.341Z,79.63
2022-12-17T01:14:46.142Z,76.00
2022-12-17T01:17:32.049Z,79.03
2022-12-17T01:20:29.673Z,77.33
2022-12-17T01:23:26.818Z,79.60
2022-12-17T01:26:15.021Z,80.90
2022-12-17T01:29:01.414Z,80.53
2022-12-17T01:31:47.406Z,78.40
2022-12-17T01:34:35.440Z,76.53
2022-12-17T01:37:22.707Z,74.37
2022-12-17T01:40:08.639Z,75.43
2022-12-17T01:43:01.089Z,81.93
2022-12-17T01:45:52.129Z,79.20
2022-12-17T01:48:50.839Z,78.33
2022-12-17T01:51:37.682Z,81.73
2022-12-17T01:54:24.405Z,79.90
2022-12-17T01:57:10.597Z,76.57
2022-12-17T02:00:04.563Z,78.73
2022-12-17T02:03:08.238Z,71.87
2022-12-17T02:06:02.527Z,71.77
2022-12-17T02:08:56.703Z,75.00
2022-12-17T02:11:52.043Z,70.93
2022-12-17T02:14:44.236Z,71.90
2022-12-17T02:17:42.225Z,74.10
2022-12-17T02:20:38.994Z,71.33
2022-12-17T02:23:32.551Z,71.37
2022-12-17T02:26:22.566Z,68.37
2022-12-17T02:29:11.256Z,70.07
2022-12-17T02:31:59.535Z,70.60
2022-12-17T02:34:57.098Z,72.20
2022-12-17T02:37:42.788Z,65.73
2022-12-17T02:40:29.461Z,68.33
2022-12-17T02:43:16.439Z,67.87
2022-12-17T02:46:05.130Z,69.20
2022-12-17T02:48:51.858Z,68.57
2022-12-17T02:51:38.157Z,62.57
2022-12-17T02:54:24.466Z,66.23
2022-12-17T02:57:10.135Z,72.57
2022-12-17T02:59:55.688Z,66.40
2022-12-17T03:02:44.054Z,67.07
2022-12-17T03:05:44.920Z,71.30
2022-12-17T03:08:31.833Z,68.70
2022-12-17T03:11:17.933Z,63.43
2022-12-17T03:14:03.642Z,67.93
2022-12-17T03:16:49.813Z,67.17
2022-12-17T03:19:36.666Z,69.23
2022-12-17T03:22:22.375Z,70.07
2022-12-17T03:25:07.974Z,70.10
2022-12-17T03:27:53.513Z,66.60
2022-12-17T03:30:39.502Z,62.40
2022-12-17T03:33:27.028Z,68.33
2022-12-17T03:36:14.008Z,62.10
2022-12-17T03:38:59.662Z,64.20
2022-12-17T03:41:45.413Z,61.17
2022-12-17T03:44:31.056Z,56.63
2022-12-17T03:47:16.845Z,59.30
2022-12-17T03:50:02.370Z,51.93
2022-12-17T03:52:49.611Z,58.37
2022-12-17T03:55:35.568Z,58.03
2022-12-17T03:58:26.773Z,56.43
2022-12-17T04:01:12.581Z,51.77
2022-12-17T04:03:58.264Z,50.97
2022-12-17T04:06:43.957Z,52.27
2022-12-17T04:09:31.028Z,51.33
2022-12-17T04:12:16.806Z,53.77
2022-12-17T04:15:02.719Z,58.97
2022-12-17T04:17:48.338Z,57.13
2022-12-17T04:20:34.068Z,54.63
2022-12-17T04:23:18.971Z,53.07
2022-12-17T04:26:05.900Z,53.07
2022-12-17T04:28:51.638Z,55.27
2022-12-17T04:31:37.270Z,55.60
2022-12-17T04:34:23.233Z,56.10
2022-12-17T04:37:08.869Z,54.07
2022-12-17T04:39:54.705Z,51.43
2022-12-17T04:42:41.765Z,51.43
2022-12-17T04:45:27.920Z,52.67
2022-12-17T04:48:20.245Z,52.80
2022-12-17T04:51:05.910Z,50.43
2022-12-17T04:53:51.667Z,49.90
2022-12-17T04:56:37.351Z,52.40
2022-12-17T04:59:24.480Z,54.67
2022-12-17T05:02:10.578Z,52.50
2022-12-17T05:04:56.184Z,50.50
2022-12-17T05:07:42.078Z,51.27
2022-12-17T05:10:28.235Z,49.07
2022-12-17T05:13:26.464Z,54.83
2022-12-17T05:16:16.185Z,50.20
2022-12-17T05:19:01.828Z,46.77
2022-12-17T05:21:47.633Z,50.43
2022-12-17T05:24:33.669Z,52.43
2022-12-17T05:27:19.212Z,47.67
2022-12-17T05:30:05.078Z,49.17
2022-12-17T05:32:52.647Z,47.40
2022-12-17T05:35:38.404Z,52.13
2022-12-17T05:38:40.247Z,50.97
2022-12-17T05:41:26.225Z,49.90
2022-12-17T05:44:12.178Z,51.27
2022-12-17T05:46:57.811Z,47.50
2022-12-17T05:49:50.138Z,51.67
2022-12-17T05:52:36.024Z,51.80
2022-12-17T05:55:21.814Z,50.07
2022-12-17T05:58:07.335Z,56.50
2022-12-17T06:00:53.410Z,51.90
2022-12-17T06:03:39.703Z,51.50
2022-12-17T06:06:26.885Z,55.77
2022-12-17T06:09:12.800Z,53.17
2022-12-17T06:12:12.923Z,51.37
2022-12-17T06:14:58.606Z,51.27
2022-12-17T06:17:44.196Z,50.10
2022-12-17T06:20:29.973Z,52.07
2022-12-17T06:23:20.474Z,50.73
2022-12-17T06:26:06.265Z,52.93
2022-12-17T06:28:52.168Z,55.37
2022-12-17T06:31:46.361Z,57.00
2022-12-17T06:34:32.111Z,57.93
2022-12-17T06:37:17.786Z,55.90
2022-12-17T06:40:04.698Z,56.23
2022-12-17T06:42:50.305Z,57.17
2022-12-17T06:45:36.249Z,54.97
2022-12-17T06:48:22.789Z,55.53
2022-12-17T06:51:09.301Z,57.70
2022-12-17T06:53:55.135Z,55.63
2022-12-17T06:56:41.946Z,60.33
2022-12-17T06:59:27.866Z,54.70
2022-12-17T07:02:13.706Z,60.43
2022-12-17T07:04:59.776Z,60.57
2022-12-17T07:07:45.555Z,59.10
2022-12-17T07:10:31.787Z,60.97
2022-12-17T07:13:24.154Z,58.90
2022-12-17T07:16:10.262Z,60.37
2022-12-17T07:18:56.325Z,57.63
2022-12-17T07:21:42.878Z,58.07
2022-12-17T07:24:29.000Z,60.87
2022-12-17T07:27:14.996Z,58.67
2022-12-17T07:30:01.862Z,59.13
2022-12-17T07:32:47.834Z,60.93
2022-12-17T07:35:33.667Z,61.43
2022-12-17T07:38:20.700Z,64.60
2022-12-17T07:41:06.435Z,68.23
2022-12-17T07:43:53.342Z,62.30
2022-12-17T07:46:40.814Z,61.47
2022-12-17T07:49:25.995Z,69.07
2022-12-17T07:52:12.288Z,65.53
2022-12-17T07:54:57.847Z,70.73
2022-12-17T07:57:44.818Z,67.20
2022-12-17T08:00:32.147Z,59.27
2022-12-17T08:03:31.829Z,63.47
2022-12-17T08:06:18.079Z,57.83
2022-12-17T08:09:03.835Z,59.67
2022-12-17T08:11:49.746Z,62.63
2022-12-17T08:14:35.377Z,66.13
2022-12-17T08:17:21.273Z,70.43
2022-12-17T08:20:08.680Z,66.77
2022-12-17T08:22:54.268Z,69.67
2022-12-17T08:25:40.298Z,64.50
2022-12-17T08:28:49.698Z,65.47
2022-12-17T08:31:32.967Z,65.17
2022-12-17T08:34:18.718Z,67.53
2022-12-17T08:37:05.579Z,68.77
2022-12-17T08:39:51.485Z,60.70
2022-12-17T08:42:37.086Z,69.90
2022-12-17T08:45:23.414Z,68.00
2022-12-17T08:48:17.638Z,70.63
2022-12-17T08:51:03.688Z,65.40
2022-12-17T08:53:50.511Z,67.50
2022-12-17T08:56:36.446Z,63.50
2022-12-17T08:59:22.489Z,61.60
2022-12-17T09:02:09.020Z,62.47
2022-12-17T09:04:55.166Z,60.07
2022-12-17T09:07:41.096Z,59.20
2022-12-17T09:10:28.717Z,57.70
2022-12-17T09:13:14.265Z,59.47
2022-12-17T09:16:00.202Z,59.83
2022-12-17T09:18:46.128Z,58.27
2022-12-17T09:21:31.698Z,59.00
2022-12-17T09:24:17.475Z,55.87
2022-12-17T09:27:05.097Z,60.00
2022-12-17T09:29:51.314Z,55.37
2022-12-17T09:32:37.184Z,55.57
2022-12-17T09:35:23.603Z,54.87
2022-12-17T09:38:11.246Z,53.73
2022-12-17T09:40:58.846Z,51.30
2022-12-17T09:43:54.026Z,50.17
2022-12-17T09:46:46.526Z,50.27
2022-12-17T09:49:36.726Z,50.60
2022-12-17T09:52:29.355Z,50.30
2022-12-17T09:55:15.264Z,48.00
2022-12-17T09:58:01.538Z,50.93
2022-12-17T10:00:48.468Z,48.20
2022-12-17T10:03:37.285Z,49.47
2022-12-17T10:06:29.348Z,51.97
2022-12-17T10:09:18.671Z,54.87
2022-12-17T10:12:04.841Z,53.30
2022-12-17T10:14:50.930Z,56.87
2022-12-17T10:17:40.117Z,50.33
2022-12-17T10:20:38.541Z,54.60
2022-12-17T10:23:36.416Z,53.93
2022-12-17T10:26:25.543Z,54.70
2022-12-17T10:29:21.346Z,52.73
2022-12-17T10:32:03.594Z,49.67
2022-12-17T10:35:04.978Z,49.67
2022-12-17T10:38:08.753Z,51.40
2022-12-17T10:41:00.108Z,47.67
2022-12-17T10:43:48.153Z,46.40
2022-12-17T10:46:44.711Z,45.17
2022-12-17T10:49:34.998Z,45.53
2022-12-17T10:52:25.419Z,46.07
2022-12-17T10:55:20.311Z,43.30
2022-12-17T10:58:10.484Z,43.83
2022-12-17T11:00:58.796Z,43.00
2022-12-17T11:03:48.117Z,47.07
2022-12-17T11:06:42.562Z,45.13
2022-12-17T11:09:43.077Z,45.47
2022-12-17T11:12:31.285Z,44.37
2022-12-17T11:15:26.088Z,44.13
2022-12-17T11:18:12.348Z,46.60
2022-12-17T11:21:07.915Z,47.83
2022-12-17T11:23:58.779Z,46.10
2022-12-17T11:26:49.067Z,45.20
2022-12-17T11:29:34.817Z,47.13
2022-12-17T11:32:58.907Z,47.30
2022-12-17T11:35:51.381Z,48.03
2022-12-17T11:39:04.600Z,49.80
2022-12-17T11:42:11.564Z,49.37
2022-12-17T11:45:11.070Z,48.13
2022-12-17T11:48:05.524Z,52.13
2022-12-17T11:50:57.827Z,46.60
2022-12-17T11:54:02.897Z,51.50
2022-12-17T11:56:54.175Z,52.87
2022-12-17T11:59:52.700Z,53.83
2022-12-17T12:03:01.739Z,53.47
2022-12-17T12:06:00.688Z,53.93
2022-12-17T12:08:48.476Z,55.70
2022-12-17T12:11:44.435Z,55.53
2022-12-17T12:14:53.237Z,58.70
2022-12-17T12:17:53.510Z,54.87
2022-12-17T12:20:53.382Z,52.37
2022-12-17T12:23:47.198Z,57.03
2022-12-17T12:26:36.881Z,51.97
2022-12-17T12:29:38.216Z,55.67
2022-12-17T12:32:28.924Z,57.00
2022-12-17T12:35:21.546Z,54.97
2022-12-17T12:38:07.238Z,59.07
2022-12-17T12:40:58.815Z,58.43
2022-12-17T12:43:49.301Z,54.70
2022-12-17T12:46:39.629Z,57.33
2022-12-17T12:49:33.304Z,53.30
2022-12-17T12:52:21.072Z,45.03
2022-12-17T12:55:12.406Z,50.73
2022-12-17T12:58:02.178Z,48.33
2022-12-17T13:00:57.937Z,45.80
2022-12-17T13:03:47.431Z,44.53
2022-12-17T13:06:37.568Z,49.93
2022-12-17T13:09:20.964Z,47.77
2022-12-17T13:11:50.847Z,47.50
2022-12-17T13:14:24.047Z,47.20
2022-12-17T13:16:56.012Z,46.73
2022-12-17T13:19:37.188Z,46.37
2022-12-17T13:22:13.007Z,49.83
2022-12-17T13:24:44.174Z,50.47
2022-12-17T13:27:31.209Z,48.10
2022-12-17T13:30:00.624Z,46.03
2022-12-17T13:32:33.414Z,50.83
2022-12-17T13:35:18.741Z,47.17
2022-12-17T13:37:58.409Z,43.70
2022-12-17T13:40:42.885Z,47.93
2022-12-17T13:43:18.407Z,44.33
2022-12-17T13:45:47.200Z,45.90
2022-12-17T13:48:23.202Z,47.97
2022-12-17T13:50:56.436Z,49.60
2022-12-17T13:53:24.779Z,49.00
2022-12-17T13:55:57.046Z,50.73
2022-12-17T13:58:27.771Z,47.13
2022-12-17T14:01:07.382Z,49.10
2022-12-17T14:04:04.310Z,50.50
2022-12-17T14:06:26.157Z,55.30
2022-12-17T14:08:57.335Z,49.13
2022-12-17T14:11:45.568Z,48.67
2022-12-17T14:14:28.550Z,50.70
2022-12-17T14:16:57.164Z,51.17
2022-12-17T14:19:26.355Z,49.67
2022-12-17T14:21:55.350Z,50.70
2022-12-17T14:24:27.339Z,46.73
2022-12-17T14:26:58.856Z,50.80
2022-12-17T14:29:28.969Z,49.93
2022-12-17T14:31:59.768Z,51.80
2022-12-17T14:34:28.293Z,50.33
2022-12-17T14:36:59.073Z,46.23
2022-12-17T14:39:30.078Z,50.23
2022-12-17T14:42:26.367Z,48.90
2022-12-17T14:44:56.226Z,46.73
2022-12-17T14:47:27.274Z,46.93
2022-12-17T14:50:02.109Z,48.60
2022-12-17T14:52:40.072Z,48.27
2022-12-17T14:55:33.834Z,49.77
2022-12-17T14:58:27.913Z,49.30
2022-12-17T15:01:00.636Z,50.40
2022-12-17T15:03:30.473Z,48.50
2022-12-17T15:06:00.402Z,50.23
2022-12-17T15:08:32.891Z,52.57
2022-12-17T15:11:01.390Z,54.53
2022-12-17T15:13:30.992Z,51.10
2022-12-17T15:15:59.354Z,53.60
2022-12-17T15:18:27.702Z,48.43
2022-12-17T15:20:56.226Z,52.17
2022-12-17T15:23:25.809Z,53.50
2022-12-17T15:25:55.045Z,47.27
2022-12-17T15:28:24.660Z,52.70
2022-12-17T15:30:54.393Z,49.70
2022-12-17T15:33:23.097Z,51.60
2022-12-17T15:35:51.496Z,52.30
2022-12-17T15:38:19.858Z,51.90
2022-12-17T15:40:48.165Z,52.03
2022-12-17T15:43:15.975Z,52.80
2022-12-17T15:45:46.294Z,44.00
2022-12-17T15:48:17.856Z,46.87
2022-12-17T15:50:46.177Z,45.40
2022-12-17T15:53:14.666Z,49.70
2022-12-17T15:55:43.216Z,47.10
2022-12-17T15:58:11.719Z,46.23
2022-12-17T16:00:40.068Z,46.47
2022-12-17T16:03:08.487Z,50.30
2022-12-17T16:05:38.484Z,55.17
2022-12-17T16:08:07.856Z,49.10
2022-12-17T16:10:36.184Z,48.00
2022-12-17T16:13:04.600Z,48.40
2022-12-17T16:15:33.449Z,42.70
2022-12-17T16:18:01.805Z,46.03
2022-12-17T16:20:29.986Z,41.93
2022-12-17T16:23:01.191Z,42.80
2022-12-17T16:25:29.686Z,43.53
2022-12-17T16:27:58.065Z,43.77
2022-12-17T16:30:26.480Z,44.50
2022-12-17T16:32:54.714Z,44.33
2022-12-17T16:35:24.002Z,47.20
2022-12-17T16:37:52.348Z,44.03
2022-12-17T16:40:22.087Z,45.37
2022-12-17T16:42:50.546Z,40.73
2022-12-17T16:45:19.618Z,44.10
2022-12-17T16:47:47.917Z,39.93
2022-12-17T16:50:16.952Z,41.70
2022-12-17T16:52:45.270Z,39.33
2022-12-17T16:55:13.615Z,37.90
2022-12-17T16:57:43.217Z,40.87
2022-12-17T17:00:13.230Z,36.70
2022-12-17T17:02:41.907Z,34.50
2022-12-17T17:05:10.509Z,36.10
2022-12-17T17:07:38.835Z,35.90
2022-12-17T17:10:07.873Z,35.20
2022-12-17T17:12:37.605Z,34.40
2022-12-17T17:15:08.380Z,35.33
2022-12-17T17:17:55.514Z,33.90
2022-12-17T17:20:24.863Z,35.27
2022-12-17T17:22:53.148Z,31.90
2022-12-17T17:25:22.254Z,33.47
2022-12-17T17:27:50.486Z,33.83
2022-12-17T17:30:20.228Z,31.20
2022-12-17T17:32:48.756Z,35.20
2022-12-17T17:35:17.105Z,31.23
2022-12-17T17:37:45.445Z,32.37
2022-12-17T17:40:14.457Z,32.77
2022-12-17T17:42:46.097Z,32.90
2022-12-17T17:45:17.099Z,32.63
2022-12-17T17:47:46.870Z,31.83
2022-12-17T17:50:15.164Z,31.13
2022-12-17T17:52:43.545Z,29.80
2022-12-17T17:55:11.907Z,30.30
2022-12-17T17:57:40.217Z,32.70
2022-12-17T18:00:09.424Z,30.53
2022-12-17T18:02:38.771Z,28.47
2022-12-17T18:05:08.975Z,29.70
2022-12-17T18:07:37.326Z,29.00
2022-12-17T18:10:06.268Z,28.07
2022-12-17T18:12:51.969Z,27.00
2022-12-17T18:15:20.267Z,25.63
2022-12-17T18:17:51.858Z,26.17
2022-12-17T18:20:21.473Z,24.00
2022-12-17T18:22:50.638Z,23.63
2022-12-17T18:25:20.099Z,26.47
2022-12-17T18:27:48.311Z,24.07
2022-12-17T18:30:17.340Z,26.30
2022-12-17T18:32:45.773Z,25.57
2022-12-17T18:35:13.985Z,23.77
2022-12-17T18:37:43.567Z,22.67
2022-12-17T18:40:12.528Z,24.50
2022-12-17T18:42:58.736Z,25.57
2022-12-17T18:45:27.025Z,25.00
2022-12-17T18:47:55.377Z,26.50
2022-12-17T18:50:23.669Z,26.17
2022-12-17T18:52:53.368Z,26.23
2022-12-17T18:55:21.695Z,26.40
2022-12-17T18:57:50.147Z,25.30
2022-12-17T19:00:18.733Z,26.20
2022-12-17T19:02:47.247Z,24.23
2022-12-17T19:05:15.747Z,22.37
2022-12-17T19:07:44.112Z,22.17
2022-12-17T19:10:13.706Z,28.30
2022-12-17T19:12:41.963Z,25.13
2022-12-17T19:15:10.969Z,25.67
2022-12-17T19:17:39.248Z,27.53
2022-12-17T19:20:08.364Z,28.63
2022-12-17T19:22:36.706Z,25.57
2022-12-17T19:25:05.444Z,27.47
2022-12-17T19:27:35.115Z,30.33
2022-12-17T19:30:03.411Z,25.93
2022-12-17T19:32:31.705Z,28.37
2022-12-17T19:35:00.067Z,26.80
2022-12-17T19:37:28.475Z,23.60
2022-12-17T19:39:56.779Z,22.47
2022-12-17T19:42:35.185Z,23.97
2022-12-17T19:45:07.125Z,24.97
2022-12-17T19:47:35.453Z,25.60
2022-12-17T19:50:03.815Z,24.10
2022-12-17T19:52:32.158Z,33.57
2022-12-17T19:55:00.439Z,29.03
2022-12-17T19:57:28.796Z,29.93
2022-12-17T19:59:57.160Z,30.47
2022-12-17T20:02:32.478Z,28.70
2022-12-17T20:05:01.803Z,29.53
2022-12-17T20:07:30.142Z,27.80
2022-12-17T20:09:58.460Z,31.50
2022-12-17T20:12:30.030Z,33.43
2022-12-17T20:14:58.279Z,32.97
2022-12-17T20:17:27.867Z,32.40
2022-12-17T20:19:57.973Z,30.23
2022-12-17T20:22:26.528Z,27.83
2022-12-17T20:24:54.925Z,33.20
2022-12-17T20:27:23.360Z,31.67
2022-12-17T20:29:51.667Z,31.17
2022-12-17T20:32:21.417Z,31.00
2022-12-17T20:34:51.684Z,29.77
2022-12-17T20:37:20.139Z,30.33
2022-12-17T20:39:48.388Z,31.83
2022-12-17T20:42:17.981Z,30.00
2022-12-17T20:44:51.577Z,33.13
2022-12-17T20:47:21.845Z,29.83
2022-12-17T20:49:51.483Z,29.50
2022-12-17T20:52:19.886Z,29.13
2022-12-17T20:54:49.441Z,30.37
2022-12-17T20:57:17.940Z,29.07
2022-12-17T20:59:46.333Z,25.17
2022-12-17T21:02:14.878Z,28.87
2022-12-17T21:04:43.269Z,27.70
2022-12-17T21:07:12.862Z,25.17
2022-12-17T21:09:41.696Z,29.60
2022-12-17T21:12:12.468Z,29.23
2022-12-17T21:14:41.037Z,28.53
2022-12-17T21:17:09.553Z,29.10
2022-12-17T21:19:38.174Z,29.00
2022-12-17T21:22:06.897Z,27.93
2022-12-17T21:24:41.726Z,29.87
2022-12-17T21:27:14.761Z,31.23
2022-12-17T21:29:43.606Z,32.30
2022-12-17T21:32:12.066Z,33.63
2022-12-17T21:34:40.743Z,33.93
2022-12-17T21:37:11.223Z,34.83
2022-12-17T21:39:41.094Z,32.53
2022-12-17T21:42:26.988Z,31.17
2022-12-17T21:44:55.323Z,30.47
2022-12-17T21:47:23.972Z,32.17
2022-12-17T21:49:52.293Z,35.10
2022-12-17T21:52:20.708Z,27.83
2022-12-17T21:54:50.252Z,29.07
2022-12-17T21:57:18.576Z,32.13
2022-12-17T21:59:46.936Z,30.30
2022-12-17T22:02:15.378Z,27.93
2022-12-17T22:04:44.205Z,28.60
2022-12-17T22:07:22.256Z,31.20
2022-12-17T22:10:25.739Z,31.37
2022-12-17T22:13:02.843Z,35.60
2022-12-17T22:15:34.464Z,31.90
2022-12-17T22:18:13.097Z,32.87
2022-12-17T22:20:41.418Z,35.53
2022-12-17T22:23:09.656Z,32.13
2022-12-17T22:25:40.458Z,32.53
2022-12-17T22:28:08.751Z,34.70
2022-12-17T22:30:54.629Z,39.87
2022-12-17T22:34:00.899Z,35.93
2022-12-17T22:38:21.578Z,35.00
2022-12-17T22:41:55.856Z,30.93
2022-12-17T22:44:32.403Z,33.37
2022-12-17T22:45:08.110Z,33.97
2022-12-17T22:47:37.114Z,31.60
2022-12-17T22:50:05.907Z,32.40
2022-12-17T22:52:34.767Z,30.83
2022-12-17T22:55:03.406Z,33.17
2022-12-17T22:57:37.423Z,32.23
2022-12-17T23:00:10.043Z,33.37
2022-12-17T23:02:38.613Z,33.27
2022-12-17T23:05:07.428Z,33.07
2022-12-17T23:07:35.878Z,32.37
2022-12-17T23:10:04.367Z,39.10
2022-12-17T23:12:52.624Z,30.17
2022-12-17T23:15:24.059Z,33.33
2022-12-17T23:17:54.194Z,33.70
2022-12-17T23:20:23.166Z,37.13
2022-12-17T23:22:51.577Z,34.87
2022-12-17T23:25:20.273Z,33.23
2022-12-17T23:27:50.463Z,37.50
2022-12-17T23:30:19.708Z,35.87
2022-12-17T23:32:48.318Z,35.57
2022-12-17T23:35:16.633Z,37.67
2022-12-17T23:37:45.065Z,42.27
2022-12-17T23:40:14.036Z,36.40
2022-12-17T23:42:42.396Z,42.10
2022-12-17T23:45:12.643Z,34.87
2022-12-17T23:47:42.169Z,37.67
2022-12-17T23:50:11.936Z,36.80
2022-12-17T23:52:40.484Z,40.13
2022-12-17T23:55:11.177Z,36.30
2022-12-17T23:57:39.562Z,39.60
